Time;durP1;ratioP1;P1;durP2;ratioP2;P2;SDS_P1;SDS_P2;PMS_P1;PMS_P2;Temp;Humidity;BMP_temperature;BMP_pressure;BME280_temperature;BME280_humidity;BME280_pressure;Samples;Min_cycle;Max_cycle;Signal;HPM_P1;HPM_P2
2023/03/24 06:01:29;;;;;;;;;1.00;1.00;;;;;-147.14;100.00;58812.66;5522790;22;46034;-58
2023/03/24 06:03:54;;;;;;;;;1.00;1.00;;;;;-147.14;100.00;58812.66;5040552;28;45306;-58
2023/03/24 06:06:21;;;;;;;;;1.00;1.00;;;;;-147.14;100.00;58812.66;5038425;28;45510;-57
2023/03/24 06:08:46;;;;;;;;;1.33;1.33;;;;;-147.14;100.00;58812.66;5039491;28;46383;-58
2023/03/24 06:11:12;;;;;;;;;1.67;1.67;;;;;-147.14;100.00;58812.66;5019526;28;45567;-58
2023/03/24 06:13:37;;;;;;;;;4.00;1.00;;;;;-147.14;100.00;58812.66;5046783;28;45474;-58
2023/03/24 06:16:03;;;;;;;;;5.67;1.00;;;;;-147.14;100.00;58812.66;5037765;28;50651;-58
2023/03/24 06:18:29;;;;;;;;;2.67;2.00;;;;;-147.14;100.00;58812.66;5032861;28;45843;-58
2023/03/24 06:20:55;;;;;;;;;1.33;1.00;;;;;-147.14;100.00;58812.66;5040639;28;45360;-58
2023/03/24 06:23:26;;;;;;;;;1.67;0.67;;;;;-147.14;100.00;58812.66;5019804;28;45430;-58
2023/03/24 06:25:52;;;;;;;;;1.33;1.00;;;;;-147.14;100.00;58812.66;5022295;28;45496;-58
2023/03/24 06:28:18;;;;;;;;;2.33;1.67;;;;;-147.14;100.00;58812.66;5040982;28;45474;-57
2023/03/24 06:31:13;;;;;;;;;1.33;1.00;;;;;-147.14;100.00;58812.66;5023133;28;45402;-57
2023/03/24 06:33:41;;;;;;;;;2.33;1.67;;;;;-147.14;100.00;58812.66;5021046;28;45545;-57
2023/03/24 06:36:07;;;;;;;;;2.00;2.00;;;;;-147.14;100.00;58812.66;5035902;28;45599;-57
2023/03/24 06:38:33;;;;;;;;;1.00;1.00;;;;;-147.14;100.00;58812.66;5018215;28;46417;-58
2023/03/24 06:41:02;;;;;;;;;3.67;2.00;;;;;-147.14;100.00;58812.66;5031622;28;66001;-59
2023/03/24 06:43:27;;;;;;;;;1.00;1.00;;;;;-147.14;100.00;58812.66;5010404;28;45342;-59
2023/03/24 06:45:53;;;;;;;;;2.00;2.00;;;;;-147.14;100.00;58812.66;5022550;28;46609;-61
2023/03/24 06:48:18;;;;;;;;;4.33;1.00;;;;;-147.14;100.00;58812.66;5043547;28;63986;-59
2023/03/24 06:50:43;;;;;;;;;1.33;1.33;;;;;-147.14;100.00;58812.66;5037520;28;67560;-58
2023/03/24 06:53:09;;;;;;;;;4.00;1.00;;;;;-147.14;100.00;58812.66;5036511;28;46147;-59
2023/03/24 06:55:34;;;;;;;;;3.00;0.67;;;;;-147.14;100.00;58812.66;5015120;28;54789;-59
2023/03/24 06:58:00;;;;;;;;;0.67;0.00;;;;;-147.14;100.00;58812.66;5044101;28;73663;-59
2023/03/24 07:00:25;;;;;;;;;1.00;0.33;;;;;-147.14;100.00;58812.66;5040772;28;45321;-57
2023/03/24 07:02:51;;;;;;;;;0.00;0.00;;;;;-147.14;100.00;58812.66;5038881;28;45527;-58
2023/03/24 07:05:17;;;;;;;;;2.00;0.33;;;;;-147.14;100.00;58812.66;5037759;28;45487;-58
2023/03/24 07:07:43;;;;;;;;;4.67;1.33;;;;;-147.14;100.00;58812.66;5027831;28;45478;-58
2023/03/24 07:10:09;;;;;;;;;5.00;1.00;;;;;-147.14;100.00;58812.66;5022359;28;45471;-58
2023/03/24 07:12:35;;;;;;;;;1.00;1.00;;;;;-147.14;100.00;58812.66;5021188;28;45517;-58
2023/03/24 07:15:03;;;;;;;;;4.33;1.67;;;;;-147.14;100.00;58812.66;5040938;28;46659;-58
2023/03/24 07:17:28;;;;;;;;;2.00;0.67;;;;;-147.14;100.00;58812.66;5019486;28;46978;-58
2023/03/24 07:19:53;;;;;;;;;2.00;0.67;;;;;-147.14;100.00;58812.66;5038777;28;71051;-58
2023/03/24 07:22:19;;;;;;;;;2.00;1.67;;;;;-147.14;100.00;58812.66;5038765;28;63922;-58
2023/03/24 07:24:44;;;;;;;;;2.00;0.67;;;;;-147.14;100.00;58812.66;5024297;28;45680;-58
2023/03/24 07:27:10;;;;;;;;;2.67;0.67;;;;;-147.14;100.00;58812.66;5022665;28;46959;-57
2023/03/24 07:29:36;;;;;;;;;3.33;0.33;;;;;-147.14;100.00;58812.66;5017076;28;45736;-52
2023/03/24 07:32:02;;;;;;;;;2.00;2.00;;;;;-147.14;100.00;58812.66;5037587;28;45224;-55
2023/03/24 07:34:28;;;;;;;;;2.67;1.00;;;;;-147.14;100.00;58812.66;5019398;28;45584;-56
2023/03/24 07:36:53;;;;;;;;;6.33;4.33;;;;;-147.14;100.00;58812.66;5029249;28;45455;-56
2023/03/24 07:39:19;;;;;;;;;5.33;2.00;;;;;-147.14;100.00;58812.66;5020368;28;51967;-55
2023/03/24 07:41:45;;;;;;;;;6.00;1.67;;;;;-147.14;100.00;58812.66;5006395;28;45462;-56
2023/03/24 07:44:10;;;;;;;;;2.00;0.67;;;;;-147.14;100.00;58812.66;5039554;28;45790;-56
2023/03/24 07:46:36;;;;;;;;;3.00;1.67;;;;;-147.14;100.00;58812.66;5028639;28;47984;-56
2023/03/24 07:49:01;;;;;;;;;5.33;0.67;;;;;-147.14;100.00;58812.66;5031866;28;45434;-56
2023/03/24 07:51:27;;;;;;;;;4.33;2.00;;;;;-147.14;100.00;58812.66;5036886;28;45316;-55
2023/03/24 07:53:52;;;;;;;;;5.33;1.00;;;;;-147.14;100.00;58812.66;5025770;28;45296;-57
2023/03/24 07:56:17;;;;;;;;;2.33;1.67;;;;;-147.14;100.00;58812.66;5017509;28;50681;-57
2023/03/24 07:58:43;;;;;;;;;5.67;3.00;;;;;-147.14;100.00;58812.66;5039280;28;47112;-57
2023/03/24 08:01:11;;;;;;;;;2.00;1.33;;;;;-147.14;100.00;58812.66;5020612;28;45486;-56
2023/03/24 08:03:36;;;;;;;;;1.00;1.00;;;;;-147.14;100.00;58812.66;5039573;28;45529;-57
2023/03/24 08:06:03;;;;;;;;;6.33;2.00;;;;;-147.14;100.00;58812.66;5035611;28;45535;-56
2023/03/24 08:08:29;;;;;;;;;3.33;1.67;;;;;-147.14;100.00;58812.66;5037677;28;45638;-56
2023/03/24 08:10:55;;;;;;;;;5.00;3.00;;;;;-147.14;100.00;58812.66;5032185;28;45379;-57
2023/03/24 08:13:21;;;;;;;;;2.33;0.67;;;;;-147.14;100.00;58812.66;5033649;28;45485;-56
2023/03/24 08:15:46;;;;;;;;;3.00;2.33;;;;;-147.14;100.00;58812.66;5033101;28;45678;-56
2023/03/24 08:18:12;;;;;;;;;3.67;1.67;;;;;-147.14;100.00;58812.66;5020605;28;45622;-56
2023/03/24 08:20:37;;;;;;;;;7.67;4.00;;;;;-147.14;100.00;58812.66;5036656;28;45317;-51
2023/03/24 08:23:03;;;;;;;;;1.33;1.33;;;;;-147.14;100.00;58812.66;5033914;28;65470;-55
2023/03/24 08:25:29;;;;;;;;;3.67;1.67;;;;;-147.14;100.00;58812.66;5039901;28;47088;-55
2023/03/24 08:27:55;;;;;;;;;2.67;1.67;;;;;-147.14;100.00;58812.66;5019127;28;46076;-54
2023/03/24 08:30:23;;;;;;;;;2.00;0.67;;;;;-147.14;100.00;58812.66;5032682;28;45305;-55
2023/03/24 08:32:54;;;;;;;;;5.67;1.33;;;;;-147.14;100.00;58812.66;5016394;28;45571;-56
2023/03/24 08:35:23;;;;;;;;;3.00;0.33;;;;;-147.14;100.00;58812.66;5015821;28;47180;-54
2023/03/24 08:37:48;;;;;;;;;0.00;0.00;;;;;-147.14;100.00;58812.66;5030819;28;45388;-56
2023/03/24 08:40:18;;;;;;;;;4.00;0.67;;;;;-147.14;100.00;58812.66;5036726;28;45415;-55
2023/03/24 08:42:44;;;;;;;;;4.33;1.33;;;;;-147.14;100.00;58812.66;5033707;28;45545;-56
2023/03/24 08:45:11;;;;;;;;;2.00;2.00;;;;;-147.14;100.00;58812.66;5019251;28;45712;-56
2023/03/24 08:47:37;;;;;;;;;5.00;2.67;;;;;-147.14;100.00;58812.66;5019644;28;45440;-55
2023/03/24 08:50:03;;;;;;;;;4.00;3.00;;;;;-147.14;100.00;58812.66;5010471;28;45508;-56
2023/03/24 08:52:29;;;;;;;;;3.00;1.00;;;;;-147.14;100.00;58812.66;5001131;28;46658;-56
2023/03/24 08:54:55;;;;;;;;;1.00;1.00;;;;;-147.14;100.00;58812.66;5038821;28;45691;-56
2023/03/24 08:57:20;;;;;;;;;11.33;7.33;;;;;-147.14;100.00;58812.66;5013312;28;45478;-57
2023/03/24 08:59:46;;;;;;;;;1.67;1.67;;;;;-147.14;100.00;58812.66;5034705;28;62666;-56
2023/03/24 09:02:12;;;;;;;;;3.00;1.67;;;;;-147.14;100.00;58812.66;5035039;28;64412;-54
2023/03/24 09:04:38;;;;;;;;;1.00;1.00;;;;;-147.14;100.00;58812.66;5017415;28;45440;-55
2023/03/24 09:07:03;;;;;;;;;2.00;2.00;;;;;-147.14;100.00;58812.66;5034517;28;45275;-56
2023/03/24 09:09:29;;;;;;;;;6.00;2.00;;;;;-147.14;100.00;58812.66;5019334;28;60517;-57
2023/03/24 09:11:54;;;;;;;;;1.00;1.00;;;;;-147.14;100.00;58812.66;5036589;28;45562;-54
2023/03/24 09:14:21;;;;;;;;;2.67;2.00;;;;;-147.14;100.00;58812.66;5035893;28;46492;-55
2023/03/24 09:16:47;;;;;;;;;1.00;1.00;;;;;-147.14;100.00;58812.66;5014414;28;45552;-54
2023/03/24 09:19:13;;;;;;;;;4.00;2.00;;;;;-147.14;100.00;58812.66;5038081;28;45593;-55
2023/03/24 09:21:40;;;;;;;;;2.00;2.00;;;;;-147.14;100.00;58812.66;5037053;28;45637;-57
2023/03/24 09:24:06;;;;;;;;;1.67;1.67;;;;;-147.14;100.00;58812.66;5033359;28;45604;-55
2023/03/24 09:26:32;;;;;;;;;1.33;1.33;;;;;-147.14;100.00;58812.66;5030512;28;45488;-55
2023/03/24 09:28:58;;;;;;;;;2.33;2.33;;;;;-147.14;100.00;58812.66;5035624;28;45570;-56
2023/03/24 09:31:23;;;;;;;;;3.00;2.00;;;;;-147.14;100.00;58812.66;5036942;28;45439;-55
2023/03/24 09:33:49;;;;;;;;;1.33;1.00;;;;;-147.14;100.00;58812.66;5035850;28;46498;-55
2023/03/24 09:36:15;;;;;;;;;2.33;1.00;;;;;-147.14;100.00;58812.66;5035681;28;46489;-55
2023/03/24 09:38:40;;;;;;;;;2.00;1.00;;;;;-147.14;100.00;58812.66;5016146;28;45376;-55
2023/03/24 09:41:15;;;;;;;;;4.67;3.00;;;;;-147.14;100.00;58812.66;5031961;28;67075;-56
2023/03/24 09:43:58;;;;;;;;;3.67;1.67;;;;;-147.14;100.00;58812.66;5017774;28;46594;-56
2023/03/24 09:46:29;;;;;;;;;2.00;1.00;;;;;-147.14;100.00;58812.66;5017343;28;45534;-55
2023/03/24 09:48:58;;;;;;;;;4.00;1.00;;;;;-147.14;100.00;58812.66;5034338;28;45596;-57
2023/03/24 09:51:29;;;;;;;;;1.00;1.00;;;;;-147.14;100.00;58812.66;5020549;28;45880;-56
2023/03/24 09:54:06;;;;;;;;;3.00;1.33;;;;;-147.14;100.00;58812.66;5017427;28;46422;-57
2023/03/24 09:56:35;;;;;;;;;0.00;0.00;;;;;-147.14;100.00;58812.66;5036796;28;46589;-55
2023/03/24 09:59:04;;;;;;;;;1.00;1.00;;;;;-147.14;100.00;58812.66;4998407;28;45613;-55
2023/03/24 10:01:30;;;;;;;;;1.00;1.00;;;;;-147.14;100.00;58812.66;5035954;28;45371;-56
2023/03/24 10:03:57;;;;;;;;;3.00;2.00;;;;;-147.14;100.00;58812.66;5034984;28;46343;-56
2023/03/24 10:06:37;;;;;;;;;1.33;1.33;;;;;-147.14;100.00;58812.66;5019284;28;45428;-56
2023/03/24 10:09:15;;;;;;;;;4.00;1.00;;;;;-147.14;100.00;58812.66;4998996;28;45549;-56
2023/03/24 10:11:40;;;;;;;;;3.33;1.00;;;;;-147.14;100.00;58812.66;5036525;28;45670;-56
2023/03/24 10:14:16;;;;;;;;;1.00;1.00;;;;;-147.14;100.00;58812.66;5033640;28;45501;-56
2023/03/24 10:16:49;;;;;;;;;5.33;2.33;;;;;-147.14;100.00;58812.66;5033390;28;45657;-57
2023/03/24 10:19:27;;;;;;;;;0.67;0.67;;;;;-147.14;100.00;58812.66;5013808;28;45597;-57
2023/03/24 10:22:24;;;;;;;;;2.50;1.00;;;;;-147.14;100.00;58812.66;5036702;28;45709;-56
2023/03/24 10:25:01;;;;;;;;;2.00;0.00;;;;;-147.14;100.00;58812.66;5034062;28;45422;-58
2023/03/24 10:27:35;;;;;;;;;2.00;0.00;;;;;-147.14;100.00;58812.66;5028072;28;45518;-56
2023/03/24 10:30:15;;;;;;;;;1.33;1.00;;;;;-147.14;100.00;58812.66;5014873;28;45456;-56
2023/03/24 10:32:41;;;;;;;;;1.67;1.67;;;;;-147.14;100.00;58812.66;5018980;28;45490;-55
2023/03/24 10:35:14;;;;;;;;;1.33;0.67;;;;;-147.14;100.00;58812.66;5015395;28;46446;-56
2023/03/24 10:37:40;;;;;;;;;4.00;1.33;;;;;-147.14;100.00;58812.66;5016370;28;45440;-55
2023/03/24 10:40:21;;;;;;;;;3.67;2.00;;;;;-147.14;100.00;58812.66;5032927;28;45819;-57
2023/03/24 10:42:48;;;;;;;;;5.00;0.67;;;;;-147.14;100.00;58812.66;5016756;28;45435;-56
2023/03/24 10:45:27;;;;;;;;;5.00;0.00;;;;;-147.14;100.00;58812.66;5015000;28;46056;-56
2023/03/24 10:47:56;;;;;;;;;2.00;2.00;;;;;-147.14;100.00;58812.66;5017455;28;45423;-55
2023/03/24 10:50:24;;;;;;;;;2.33;1.00;;;;;-147.14;100.00;58812.66;5036875;28;45345;-57
2023/03/24 10:52:52;;;;;;;;;2.33;1.00;;;;;-147.14;100.00;58812.66;5035628;28;45658;-55
2023/03/24 10:55:20;;;;;;;;;3.00;1.00;;;;;-147.14;100.00;58812.66;5029879;28;45452;-63
2023/03/24 10:57:47;;;;;;;;;2.00;1.00;;;;;-147.14;100.00;58812.66;5041551;28;45329;-63
2023/03/24 11:00:22;;;;;;;;;1.67;1.00;;;;;-147.14;100.00;58812.66;5035924;28;45437;-65
2023/03/24 11:03:03;;;;;;;;;1.00;1.00;;;;;-147.14;100.00;58812.66;5033987;28;45410;-64
2023/03/24 11:05:34;;;;;;;;;6.00;2.00;;;;;-147.14;100.00;58812.66;5027904;28;45469;-64
2023/03/24 11:08:11;;;;;;;;;1.33;0.00;;;;;-147.14;100.00;58812.66;5005477;28;45775;-65
2023/03/24 11:10:37;;;;;;;;;2.00;1.67;;;;;-147.14;100.00;58812.66;5028297;28;45412;-63
2023/03/24 11:13:04;;;;;;;;;3.33;0.00;;;;;-147.14;100.00;58812.66;5035076;28;45558;-59
2023/03/24 11:15:35;;;;;;;;;3.67;1.67;;;;;-147.14;100.00;58812.66;5034408;28;46597;-61
2023/03/24 11:18:15;;;;;;;;;2.00;2.00;;;;;-147.14;100.00;58812.66;5035398;28;45803;-65
2023/03/24 11:21:14;;;;;;;;;1.00;1.00;;;;;-147.14;100.00;58812.66;5029777;28;45407;-67
2023/03/24 11:23:44;;;;;;;;;2.75;1.00;;;;;-147.14;100.00;58812.66;4965400;28;45521;-66
2023/03/24 11:26:29;;;;;;;;;3.00;1.00;;;;;-147.14;100.00;58812.66;5029645;28;45446;-65
2023/03/24 11:28:57;;;;;;;;;3.00;3.00;;;;;-147.14;100.00;58812.66;5034746;28;45439;-63
2023/03/24 11:31:31;;;;;;;;;7.00;3.00;;;;;-147.14;100.00;58812.66;5034686;28;45472;-66
2023/03/24 11:34:00;;;;;;;;;3.25;1.00;;;;;-147.14;100.00;58812.66;5014704;28;45614;-59
2023/03/24 11:36:38;;;;;;;;;3.00;1.00;;;;;-147.14;100.00;58812.66;4997128;28;47135;-65
2023/03/24 11:39:11;;;;;;;;;3.75;1.25;;;;;-147.14;100.00;58812.66;5033831;28;45417;-61
2023/03/24 11:41:40;;;;;;;;;1.75;1.00;;;;;-147.14;100.00;58812.66;5020745;28;45448;-67
2023/03/24 11:44:21;;;;;;;;;2.00;1.25;;;;;-147.14;100.00;58812.66;5005456;28;45621;-68
2023/03/24 11:46:50;;;;;;;;;2.00;2.00;;;;;-147.14;100.00;58812.66;5036443;28;46303;-60
2023/03/24 11:49:19;;;;;;;;;3.25;1.00;;;;;-147.14;100.00;58812.66;5044399;28;45586;-63
2023/03/24 11:51:48;;;;;;;;;1.00;1.00;;;;;-147.14;100.00;58812.66;5038649;28;45332;-55
2023/03/24 11:54:17;;;;;;;;;3.50;2.00;;;;;-147.14;100.00;58812.66;5036227;28;45487;-55
2023/03/24 11:56:45;;;;;;;;;4.75;1.00;;;;;-147.14;100.00;58812.66;5036125;28;45692;-66
2023/03/24 11:59:33;;;;;;;;;0.75;0.25;;;;;-147.14;100.00;58812.66;5016486;28;46911;-56
2023/03/24 12:02:09;;;;;;;;;1.75;1.00;;;;;-147.14;100.00;58812.66;5014306;28;45765;-63
2023/03/24 12:05:16;;;;;;;;;1.50;1.00;;;;;-147.14;100.00;58812.66;5037180;28;45433;-63
2023/03/24 12:07:42;;;;;;;;;1.25;0.75;;;;;-147.14;100.00;58812.66;5014570;28;48103;-63
2023/03/24 12:10:13;;;;;;;;;3.00;1.00;;;;;-147.14;100.00;58812.66;5043217;28;45407;-62
2023/03/24 12:12:47;;;;;;;;;0.75;0.75;;;;;-147.14;100.00;58812.66;5029568;28;45815;-67
2023/03/24 12:15:51;;;;;;;;;0.00;0.00;;;;;-147.14;100.00;58812.66;5033384;28;45363;-59
2023/03/24 12:18:26;;;;;;;;;1.25;0.00;;;;;-147.14;100.00;58812.66;5022913;28;45388;-60
2023/03/24 12:21:06;;;;;;;;;0.00;0.00;;;;;-147.14;100.00;58812.66;5033979;28;45406;-61
2023/03/24 12:23:53;;;;;;;;;1.25;0.75;;;;;-147.14;100.00;58812.66;5034160;28;45511;-60
2023/03/24 12:26:28;;;;;;;;;0.00;0.00;;;;;-147.14;100.00;58812.66;5000951;28;45510;-56
2023/03/24 12:29:16;;;;;;;;;0.00;0.00;;;;;-147.14;100.00;58812.66;5009865;28;46377;-69
2023/03/24 12:31:45;;;;;;;;;0.00;0.00;;;;;-147.14;100.00;58812.66;5038519;28;45580;-55
2023/03/24 12:35:08;;;;;;;;;1.25;0.00;;;;;-147.14;100.00;58812.66;5035226;28;45363;-59
2023/03/24 12:38:00;;;;;;;;;0.00;0.00;;;;;-147.14;100.00;58812.66;4953958;28;45335;-58
2023/03/24 12:40:41;;;;;;;;;0.00;0.00;;;;;-147.14;100.00;58812.66;4949713;28;46534;-58
2023/03/24 12:43:40;;;;;;;;;1.00;0.00;;;;;-147.14;100.00;58812.66;5009903;28;45338;-61
2023/03/24 12:46:21;;;;;;;;;1.50;0.00;;;;;-147.14;100.00;58812.66;5035487;28;46258;-61
2023/03/24 12:49:01;;;;;;;;;1.25;1.25;;;;;-147.14;100.00;58812.66;5028445;28;45531;-60
2023/03/24 12:51:29;;;;;;;;;2.00;1.00;;;;;-147.14;100.00;58812.66;5032421;28;45641;-61
2023/03/24 12:54:04;;;;;;;;;2.50;1.00;;;;;-147.14;100.00;58812.66;5033944;28;45474;-60
2023/03/24 12:56:41;;;;;;;;;2.00;0.50;;;;;-147.14;100.00;58812.66;5033272;28;45500;-60
2023/03/24 12:59:13;;;;;;;;;3.50;0.25;;;;;-147.14;100.00;58812.66;5036070;28;45423;-60
2023/03/24 13:01:42;;;;;;;;;0.00;0.00;;;;;-147.14;100.00;58812.66;5011108;28;46270;-60
2023/03/24 13:04:10;;;;;;;;;3.75;0.75;;;;;-147.14;100.00;58812.66;5036389;28;45472;-60
2023/03/24 13:06:40;;;;;;;;;1.00;1.00;;;;;-147.14;100.00;58812.66;5004343;28;45431;-60
2023/03/24 13:09:24;;;;;;;;;0.00;0.00;;;;;-147.14;100.00;58812.66;5015612;28;45437;-60
2023/03/24 13:12:01;;;;;;;;;4.00;1.00;;;;;-147.14;100.00;58812.66;5016575;28;47258;-60
2023/03/24 13:14:45;;;;;;;;;1.00;1.00;;;;;-147.14;100.00;58812.66;5027378;28;45430;-59
2023/03/24 13:17:25;;;;;;;;;1.00;1.00;;;;;-147.14;100.00;58812.66;5020573;28;45430;-70
2023/03/24 13:19:52;;;;;;;;;3.67;1.00;;;;;-147.14;100.00;58812.66;5019381;28;45722;-70
2023/03/24 13:22:19;;;;;;;;;1.25;1.00;;;;;-147.14;100.00;58812.66;5036516;28;64065;-70
2023/03/24 13:24:45;;;;;;;;;0.00;0.00;;;;;-147.14;100.00;58812.66;4999240;28;46145;-70
2023/03/24 13:27:20;;;;;;;;;1.00;1.00;;;;;-147.14;100.00;58812.66;4999559;28;46389;-71
2023/03/24 13:30:12;;;;;;;;;1.75;0.75;;;;;-147.14;100.00;58812.66;5016559;28;45452;-70
2023/03/24 13:32:41;;;;;;;;;0.00;0.00;;;;;-147.14;100.00;58812.66;5018847;28;46553;-70
2023/03/24 13:35:19;;;;;;;;;1.33;0.33;;;;;-147.14;100.00;58812.66;5019857;28;45633;-70
2023/03/24 13:37:50;;;;;;;;;5.00;0.67;;;;;-147.14;100.00;58812.66;5033215;28;45576;-70
2023/03/24 13:40:26;;;;;;;;;0.00;0.00;;;;;-147.14;100.00;58812.66;5019514;28;45453;-71
2023/03/24 13:43:05;;;;;;;;;1.33;0.33;;;;;-147.14;100.00;58812.66;5013190;28;45565;-70
2023/03/24 13:45:56;;;;;;;;;2.00;1.00;;;;;-147.14;100.00;58812.66;5011755;28;45566;-71
2023/03/24 13:48:31;;;;;;;;;2.33;1.00;;;;;-147.14;100.00;58812.66;5015148;28;45486;-68
2023/03/24 13:51:03;;;;;;;;;3.00;0.00;;;;;-147.14;100.00;58812.66;5007727;28;45455;-70
2023/03/24 13:53:31;;;;;;;;;2.00;0.00;;;;;-147.14;100.00;58812.66;5017652;28;45781;-71
2023/03/24 13:55:57;;;;;;;;;0.00;0.00;;;;;-147.14;100.00;58812.66;5036807;28;45449;-71
2023/03/24 13:58:27;;;;;;;;;0.00;0.00;;;;;-147.14;100.00;58812.66;5026927;28;45920;-70
2023/03/24 14:01:14;;;;;;;;;0.00;0.00;;;;;-147.14;100.00;58812.66;4995791;28;45722;-70
2023/03/24 14:03:42;;;;;;;;;2.00;0.00;;;;;-147.14;100.00;58812.66;5035100;28;45474;-71
2023/03/24 14:06:08;;;;;;;;;0.00;0.00;;;;;-147.14;100.00;58812.66;5034838;28;45361;-70
2023/03/24 14:08:40;;;;;;;;;5.00;1.00;;;;;-147.14;100.00;58812.66;5019530;28;46696;-70
2023/03/24 14:11:33;;;;;;;;;1.33;1.00;;;;;-147.14;100.00;58812.66;5031051;28;45782;-71
2023/03/24 14:14:06;;;;;;;;;1.00;1.00;;;;;-147.14;100.00;58812.66;5035809;28;45359;-71
2023/03/24 14:16:32;;;;;;;;;1.00;1.00;;;;;-147.14;100.00;58812.66;5033390;28;45879;-71
2023/03/24 14:19:16;;;;;;;;;1.00;0.00;;;;;-147.14;100.00;58812.66;5036793;28;45350;-70
2023/03/24 14:21:42;;;;;;;;;1.67;0.00;;;;;-147.14;100.00;58812.66;5033508;28;45853;-71
2023/03/24 14:24:16;;;;;;;;;0.75;0.00;;;;;-147.14;100.00;58812.66;5019879;28;46910;-71
2023/03/24 14:26:42;;;;;;;;;0.33;0.00;;;;;-147.14;100.00;58812.66;5015824;28;45496;-71
2023/03/24 14:29:37;;;;;;;;;0.00;0.00;;;;;-147.14;100.00;58812.66;5009989;28;45665;-70
2023/03/24 14:32:03;;;;;;;;;0.33;0.33;;;;;-147.14;100.00;58812.66;5019183;28;45490;-70
2023/03/24 14:34:29;;;;;;;;;0.33;0.00;;;;;-147.14;100.00;58812.66;5017780;28;46937;-71
2023/03/24 14:37:02;;;;;;;;;0.00;0.00;;;;;-147.14;100.00;58812.66;5034609;28;45337;-72
2023/03/24 14:39:35;;;;;;;;;0.00;0.00;;;;;-147.14;100.00;58812.66;5012816;28;45519;-71
2023/03/24 14:42:47;;;;;;;;;0.00;0.00;;;;;-147.14;100.00;58812.66;5017006;28;45449;-70
2023/03/24 14:45:50;;;;;;;;;2.33;0.00;;;;;-147.14;100.00;58812.66;5031832;28;45603;-70
2023/03/24 14:48:51;;;;;;;;;1.00;0.00;;;;;-147.14;100.00;58812.66;5014976;28;45591;-71
2023/03/24 14:51:38;;;;;;;;;1.00;0.00;;;;;-147.14;100.00;58812.66;5017611;28;45455;-70
2023/03/24 14:54:42;;;;;;;;;0.67;0.67;;;;;-147.14;100.00;58812.66;5031420;28;45251;-71
2023/03/24 14:57:16;;;;;;;;;0.00;0.00;;;;;-147.14;100.00;58812.66;4945978;28;45568;-70
2023/03/24 15:00:13;;;;;;;;;0.00;0.00;;;;;-147.14;100.00;58812.66;5004224;28;45817;-69
2023/03/24 15:02:47;;;;;;;;;0.00;0.00;;;;;-147.14;100.00;58812.66;5026679;28;45339;-71
2023/03/24 15:05:12;;;;;;;;;1.00;1.00;;;;;-147.14;100.00;58812.66;5019815;28;45393;-71
2023/03/24 15:07:38;;;;;;;;;0.00;0.00;;;;;-147.14;100.00;58812.66;5036222;28;46729;-71
2023/03/24 15:10:04;;;;;;;;;1.67;0.00;;;;;-147.14;100.00;58812.66;5038824;28;45414;-70
2023/03/24 15:12:29;;;;;;;;;0.67;0.67;;;;;-147.14;100.00;58812.66;5034381;28;45428;-70
2023/03/24 15:14:55;;;;;;;;;1.67;0.00;;;;;-147.14;100.00;58812.66;5009691;28;45528;-70
2023/03/24 15:17:21;;;;;;;;;0.00;0.00;;;;;-147.14;100.00;58812.66;5037801;28;46282;-70
2023/03/24 15:19:52;;;;;;;;;0.00;0.00;;;;;-147.14;100.00;58812.66;5020204;28;45662;-71
2023/03/24 15:22:18;;;;;;;;;0.00;0.00;;;;;-147.14;100.00;58812.66;5018904;28;45413;-71
2023/03/24 15:24:47;;;;;;;;;2.00;0.00;;;;;-147.14;100.00;58812.66;5017098;28;45486;-71
2023/03/24 15:27:17;;;;;;;;;1.00;1.00;;;;;-147.14;100.00;58812.66;5021026;28;46714;-70
2023/03/24 15:29:43;;;;;;;;;1.00;1.00;;;;;-147.14;100.00;58812.66;5028332;28;45582;-70
2023/03/24 15:32:18;;;;;;;;;3.00;0.00;;;;;-147.14;100.00;58812.66;5009113;28;45524;-70
2023/03/24 15:34:53;;;;;;;;;0.00;0.00;;;;;-147.14;100.00;58812.66;5019262;28;45853;-70
2023/03/24 15:37:29;;;;;;;;;1.00;0.00;;;;;-147.14;100.00;58812.66;5031582;28;45501;-71
2023/03/24 15:39:54;;;;;;;;;1.50;0.00;;;;;-147.14;100.00;58812.66;5037518;28;45612;-70
2023/03/24 15:42:21;;;;;;;;;0.33;0.00;;;;;-147.14;100.00;58812.66;5020211;28;45594;-71
2023/03/24 15:44:47;;;;;;;;;2.00;0.00;;;;;-147.14;100.00;58812.66;5018302;28;45455;-70
2023/03/24 15:47:18;;;;;;;;;0.00;0.00;;;;;-147.14;100.00;58812.66;5014464;28;45497;-69
2023/03/24 15:49:58;;;;;;;;;1.33;1.33;;;;;-147.14;100.00;58812.66;5033898;28;45305;-70
2023/03/24 15:52:30;;;;;;;;;1.67;0.67;;;;;-147.14;100.00;58812.66;5037388;28;45582;-70
2023/03/24 15:55:28;;;;;;;;;1.00;0.00;;;;;-147.14;100.00;58812.66;5031593;28;46692;-71
2023/03/24 15:57:55;;;;;;;;;1.00;1.00;;;;;-147.14;100.00;58812.66;5030420;28;45511;-72
2023/03/24 16:00:29;;;;;;;;;1.67;0.67;;;;;-147.14;100.00;58812.66;5018666;28;45523;-68
2023/03/24 16:02:56;;;;;;;;;1.00;0.00;;;;;-147.14;100.00;58812.66;5017248;28;45538;-68
2023/03/24 16:05:24;;;;;;;;;1.00;1.00;;;;;-147.14;100.00;58812.66;4996708;28;45836;-68
2023/03/24 16:08:00;;;;;;;;;1.00;0.00;;;;;-147.14;100.00;58812.66;5026131;28;45429;-69
2023/03/24 16:10:27;;;;;;;;;0.67;0.67;;;;;-147.14;100.00;58812.66;5026875;28;45451;-69
2023/03/24 16:12:53;;;;;;;;;2.33;1.00;;;;;-147.14;100.00;58812.66;5012981;28;45647;-68
2023/03/24 16:15:18;;;;;;;;;1.67;0.00;;;;;-147.14;100.00;58812.66;5014045;28;55605;-68
2023/03/24 16:17:44;;;;;;;;;1.00;0.00;;;;;-147.14;100.00;58812.66;5035928;28;67266;-70
2023/03/24 16:20:18;;;;;;;;;0.33;0.00;;;;;-147.14;100.00;58812.66;5026935;28;48706;-70
2023/03/24 16:22:45;;;;;;;;;0.67;0.67;;;;;-147.14;100.00;58812.66;5019004;28;45484;-71
2023/03/24 16:25:10;;;;;;;;;1.00;0.00;;;;;-147.14;100.00;58812.66;5033328;28;45509;-70
2023/03/24 16:27:36;;;;;;;;;1.67;0.00;;;;;-147.14;100.00;58812.66;5010818;28;45701;-71
2023/03/24 16:30:05;;;;;;;;;1.00;1.00;;;;;-147.14;100.00;58812.66;5012525;28;73805;-66
2023/03/24 16:32:31;;;;;;;;;2.00;1.00;;;;;-147.14;100.00;58812.66;5002870;28;45567;-67
2023/03/24 16:34:57;;;;;;;;;4.00;1.00;;;;;-147.14;100.00;58812.66;5020547;28;45754;-66
2023/03/24 16:37:22;;;;;;;;;1.00;1.00;;;;;-147.14;100.00;58812.66;5012163;28;45529;-64
2023/03/24 16:39:48;;;;;;;;;2.67;1.00;;;;;-147.14;100.00;58812.66;5007270;28;67843;-70
2023/03/24 16:42:13;;;;;;;;;0.00;0.00;;;;;-147.14;100.00;58812.66;5012464;28;45689;-71
2023/03/24 16:44:39;;;;;;;;;1.00;1.00;;;;;-147.14;100.00;58812.66;5013393;28;45495;-71
2023/03/24 16:47:08;;;;;;;;;4.33;1.33;;;;;-147.14;100.00;58812.66;5049766;28;69603;-70
2023/03/24 16:49:34;;;;;;;;;5.67;4.67;;;;;-147.14;100.00;58812.66;5038024;28;45512;-72
2023/03/24 16:51:59;;;;;;;;;2.33;1.00;;;;;-147.14;100.00;58812.66;5032178;28;45757;-71
2023/03/24 16:54:24;;;;;;;;;2.00;1.00;;;;;-147.14;100.00;58812.66;5028712;28;66472;-72
2023/03/24 16:56:50;;;;;;;;;1.00;0.67;;;;;-147.14;100.00;58812.66;5048092;28;46577;-72
2023/03/24 16:59:15;;;;;;;;;1.33;1.33;;;;;-147.14;100.00;58812.66;5039815;28;45423;-73
2023/03/24 17:01:44;;;;;;;;;2.00;2.00;;;;;-147.14;100.00;58812.66;5018703;28;45492;-73
2023/03/24 17:04:16;;;;;;;;;0.67;0.33;;;;;-147.14;100.00;58812.66;5021173;28;45517;-73
2023/03/24 17:06:44;;;;;;;;;3.67;1.67;;;;;-147.14;100.00;58812.66;5018947;28;46164;-73
2023/03/24 17:09:11;;;;;;;;;4.00;2.00;;;;;-147.14;100.00;58812.66;5028371;28;45298;-72
2023/03/24 17:11:39;;;;;;;;;1.00;1.00;;;;;-147.14;100.00;58812.66;5048614;28;45634;-71
2023/03/24 17:14:10;;;;;;;;;5.33;2.33;;;;;-147.14;100.00;58812.66;5028524;28;45769;-71
2023/03/24 17:16:42;;;;;;;;;2.00;2.00;;;;;-147.14;100.00;58812.66;5032947;28;46982;-72
2023/03/24 17:19:09;;;;;;;;;6.00;4.00;;;;;-147.14;100.00;58812.66;5013796;28;45270;-73
2023/03/24 17:21:37;;;;;;;;;1.00;1.00;;;;;-147.14;100.00;58812.66;5001431;28;45378;-72
2023/03/24 17:24:05;;;;;;;;;1.00;1.00;;;;;-147.14;100.00;58812.66;5035483;28;45400;-71
2023/03/24 17:26:30;;;;;;;;;1.67;0.00;;;;;-147.14;100.00;58812.66;5017986;28;45485;-70
2023/03/24 17:28:56;;;;;;;;;0.00;0.00;;;;;-147.14;100.00;58812.66;5017588;28;64623;-71